Time;durP1;ratioP1;P1;durP2;ratioP2;P2;SDS_P1;SDS_P2;PMS_P1;PMS_P2;Temp;Humidity;BMP_temperature;BMP_pressure;BME280_temperature;BME280_humidity;BME280_pressure;Samples;Min_cycle;Max_cycle;Signal;HPM_P1;HPM_P2
2023/06/17 00:00:58;;;;;;;14.68;6.97;;;;;;;;;;5069995;28;20057;-73
2023/06/17 00:03:23;;;;;;;10.52;7.10;;;;;;;;;;5079491;28;20039;-73
2023/06/17 00:05:48;;;;;;;10.30;6.43;;;;;;;;;;5078067;28;20051;-73
2023/06/17 00:08:14;;;;;;;10.68;7.20;;;;;;;;;;5079472;28;20031;-73
2023/06/17 00:10:39;;;;;;;10.75;6.45;;;;;;;;;;5080822;28;20029;-73
2023/06/17 00:13:08;;;;;;;11.63;6.80;;;;;;;;;;5080484;28;20036;-73
2023/06/17 00:15:33;;;;;;;10.77;6.78;;;;;;;;;;5068828;28;20115;-73
2023/06/17 00:18:00;;;;;;;9.38;6.65;;;;;;;;;;5075208;28;20116;-73
2023/06/17 00:20:26;;;;;;;10.90;6.85;;;;;;;;;;5070218;28;20036;-73
2023/06/17 00:22:52;;;;;;;10.90;6.30;;;;;;;;;;5065318;28;20042;-73
2023/06/17 00:25:18;;;;;;;8.20;5.95;;;;;;;;;;5092182;28;20066;-73
2023/06/17 00:27:43;;;;;;;13.30;6.25;;;;;;;;;;5077689;28;20028;-73
2023/06/17 00:30:09;;;;;;;11.82;6.40;;;;;;;;;;5078524;28;20029;-72
2023/06/17 00:32:35;;;;;;;7.70;6.00;;;;;;;;;;5075937;28;20086;-73
2023/06/17 00:35:05;;;;;;;8.07;6.07;;;;;;;;;;5071282;28;20072;-73
2023/06/17 00:37:31;;;;;;;6.88;5.65;;;;;;;;;;5075733;28;20407;-73
2023/06/17 00:39:56;;;;;;;8.23;5.68;;;;;;;;;;5078286;28;20029;-73
2023/06/17 00:42:22;;;;;;;7.00;5.15;;;;;;;;;;5071572;28;20181;-73
2023/06/17 00:44:47;;;;;;;6.15;4.97;;;;;;;;;;5064263;28;20041;-73
2023/06/17 00:47:13;;;;;;;11.77;5.95;;;;;;;;;;5069386;28;20541;-73
2023/06/17 00:49:44;;;;;;;7.93;5.07;;;;;;;;;;5057875;28;20040;-73
2023/06/17 00:52:11;;;;;;;8.27;5.60;;;;;;;;;;5068043;28;20095;-73
2023/06/17 00:54:38;;;;;;;8.40;5.45;;;;;;;;;;5087666;28;20056;-73
2023/06/17 00:57:07;;;;;;;7.65;4.93;;;;;;;;;;5088405;28;20085;-73
2023/06/17 00:59:36;;;;;;;8.98;4.85;;;;;;;;;;5064110;28;20055;-73
2023/06/17 01:02:02;;;;;;;8.10;4.53;;;;;;;;;;5064070;28;20068;-73
2023/06/17 01:04:28;;;;;;;9.65;5.50;;;;;;;;;;5071114;28;20064;-73
2023/06/17 01:07:23;;;;;;;7.97;5.00;;;;;;;;;;5074779;28;20032;-73
2023/06/17 01:09:52;;;;;;;8.27;5.45;;;;;;;;;;5057455;28;20497;-73
2023/06/17 01:12:18;;;;;;;9.45;5.03;;;;;;;;;;5067934;28;20025;-73
2023/06/17 01:14:45;;;;;;;7.53;5.05;;;;;;;;;;5052152;28;20054;-73
2023/06/17 01:17:12;;;;;;;9.00;4.93;;;;;;;;;;5068777;28;20048;-73
2023/06/17 01:19:39;;;;;;;7.65;4.68;;;;;;;;;;5059048;28;20025;-73
2023/06/17 01:22:08;;;;;;;8.48;4.72;;;;;;;;;;5070333;28;20051;-73
2023/06/17 01:24:34;;;;;;;8.52;4.70;;;;;;;;;;5054532;28;20563;-73
2023/06/17 01:27:02;;;;;;;8.30;5.03;;;;;;;;;;5062684;28;20025;-73
2023/06/17 01:29:38;;;;;;;9.25;5.40;;;;;;;;;;5062331;28;20051;-73
2023/06/17 01:32:05;;;;;;;6.43;4.93;;;;;;;;;;5062830;28;20482;-73
2023/06/17 01:34:46;;;;;;;5.97;4.88;;;;;;;;;;5066445;28;20050;-73
2023/06/17 01:37:14;;;;;;;7.43;5.43;;;;;;;;;;5065873;28;20036;-73
2023/06/17 01:39:42;;;;;;;7.60;5.40;;;;;;;;;;5068877;28;20051;-73
2023/06/17 01:42:23;;;;;;;6.70;4.97;;;;;;;;;;5066797;28;20454;-73
2023/06/17 01:44:50;;;;;;;7.15;5.03;;;;;;;;;;5076846;28;20039;-73
2023/06/17 01:47:15;;;;;;;7.80;5.25;;;;;;;;;;5072469;28;20380;-74
2023/06/17 01:49:41;;;;;;;7.05;4.60;;;;;;;;;;5076861;28;20040;-72
2023/06/17 01:52:09;;;;;;;9.20;4.97;;;;;;;;;;5068919;28;20044;-73
2023/06/17 01:54:35;;;;;;;7.68;4.95;;;;;;;;;;5071116;28;20093;-72
2023/06/17 01:57:00;;;;;;;9.98;5.65;;;;;;;;;;5067088;28;20107;-72
2023/06/17 01:59:26;;;;;;;11.57;5.28;;;;;;;;;;5073803;28;20031;-72
2023/06/17 02:01:51;;;;;;;8.68;5.60;;;;;;;;;;5082301;28;20171;-72
2023/06/17 02:04:17;;;;;;;9.00;5.78;;;;;;;;;;5074501;28;20087;-72
2023/06/17 02:06:42;;;;;;;11.52;5.53;;;;;;;;;;5066440;28;20033;-72
2023/06/17 02:09:08;;;;;;;7.57;5.32;;;;;;;;;;5068324;28;20078;-72
2023/06/17 02:11:34;;;;;;;7.55;4.75;;;;;;;;;;5073742;28;20046;-72
2023/06/17 02:13:59;;;;;;;6.97;5.75;;;;;;;;;;5072687;28;20032;-72
2023/06/17 02:16:24;;;;;;;7.50;5.70;;;;;;;;;;5073259;28;20036;-72
2023/06/17 02:18:53;;;;;;;8.35;5.30;;;;;;;;;;5072642;28;20044;-72
2023/06/17 02:21:18;;;;;;;10.00;5.30;;;;;;;;;;5074981;28;20056;-72
2023/06/17 02:23:48;;;;;;;15.82;5.75;;;;;;;;;;5069290;28;20074;-75
2023/06/17 02:26:15;;;;;;;6.55;5.30;;;;;;;;;;5062586;28;20530;-75
2023/06/17 02:28:42;;;;;;;7.00;5.32;;;;;;;;;;5072063;28;20032;-72
2023/06/17 02:31:08;;;;;;;6.53;5.63;;;;;;;;;;5070233;28;20040;-72
2023/06/17 02:33:33;;;;;;;9.05;5.07;;;;;;;;;;5072312;28;20032;-72
2023/06/17 02:35:59;;;;;;;10.63;6.30;;;;;;;;;;5079094;28;20039;-72
2023/06/17 02:38:24;;;;;;;6.88;5.07;;;;;;;;;;5071899;28;20277;-72
2023/06/17 02:40:50;;;;;;;9.63;5.78;;;;;;;;;;5084111;28;20115;-72
2023/06/17 02:43:15;;;;;;;12.05;5.70;;;;;;;;;;5062429;28;20064;-72
2023/06/17 02:45:40;;;;;;;11.18;5.03;;;;;;;;;;5063966;28;20025;-72
2023/06/17 02:48:05;;;;;;;8.35;5.55;;;;;;;;;;5063875;28;20444;-72
2023/06/17 02:50:31;;;;;;;8.27;5.30;;;;;;;;;;5073318;28;20031;-72
2023/06/17 02:52:56;;;;;;;9.68;5.78;;;;;;;;;;5081494;28;20051;-72
2023/06/17 02:55:25;;;;;;;14.63;6.07;;;;;;;;;;5071573;28;20127;-72
2023/06/17 02:57:50;;;;;;;7.38;5.05;;;;;;;;;;5072477;28;20040;-72
2023/06/17 03:00:16;;;;;;;9.77;5.78;;;;;;;;;;5065413;28;20016;-72
2023/06/17 03:02:42;;;;;;;6.47;5.47;;;;;;;;;;5070748;28;20032;-72
2023/06/17 03:05:07;;;;;;;8.18;5.57;;;;;;;;;;5064521;28;20052;-72
2023/06/17 03:07:35;;;;;;;6.70;5.50;;;;;;;;;;5059901;28;20032;-72
2023/06/17 03:10:04;;;;;;;8.75;6.13;;;;;;;;;;5063903;28;20040;-72
2023/06/17 03:12:30;;;;;;;10.85;5.82;;;;;;;;;;5061209;28;20064;-72
2023/06/17 03:14:55;;;;;;;7.25;5.68;;;;;;;;;;5067905;28;20517;-72
2023/06/17 03:17:21;;;;;;;5.82;5.20;;;;;;;;;;5060391;28;20064;-72
2023/06/17 03:19:46;;;;;;;8.52;5.28;;;;;;;;;;5069317;28;20028;-72
2023/06/17 03:22:12;;;;;;;11.05;6.05;;;;;;;;;;5073193;28;20082;-72
2023/06/17 03:24:37;;;;;;;9.38;5.18;;;;;;;;;;5065000;28;20032;-72
2023/06/17 03:27:02;;;;;;;7.05;5.68;;;;;;;;;;5069082;28;20402;-72
2023/06/17 03:29:28;;;;;;;11.60;5.40;;;;;;;;;;5066358;28;20128;-72
2023/06/17 03:31:56;;;;;;;8.32;5.57;;;;;;;;;;5074346;28;20035;-72
2023/06/17 03:34:22;;;;;;;6.20;5.22;;;;;;;;;;5068588;28;20032;-72
2023/06/17 03:36:49;;;;;;;10.85;5.35;;;;;;;;;;5071955;28;21015;-72
2023/06/17 03:39:14;;;;;;;7.93;5.32;;;;;;;;;;5059403;28;20060;-72
2023/06/17 03:41:40;;;;;;;8.82;5.22;;;;;;;;;;5068831;28;20052;-72
2023/06/17 03:44:05;;;;;;;6.32;5.18;;;;;;;;;;5060601;28;20522;-72
2023/06/17 03:46:30;;;;;;;8.38;5.50;;;;;;;;;;5081031;28;20032;-72
2023/06/17 03:48:55;;;;;;;11.82;5.20;;;;;;;;;;5063513;28;20097;-72
2023/06/17 03:51:21;;;;;;;6.68;4.93;;;;;;;;;;5071576;28;20028;-72
2023/06/17 03:53:46;;;;;;;9.82;5.53;;;;;;;;;;5062318;28;20105;-71
2023/06/17 03:56:13;;;;;;;8.07;5.57;;;;;;;;;;5070360;28;20395;-72
2023/06/17 03:58:38;;;;;;;7.85;5.25;;;;;;;;;;5065666;28;20028;-72
2023/06/17 04:01:06;;;;;;;7.07;4.90;;;;;;;;;;5066192;28;20024;-72
2023/06/17 04:03:31;;;;;;;7.00;4.95;;;;;;;;;;5080268;28;20114;-72
2023/06/17 04:05:56;;;;;;;7.13;5.03;;;;;;;;;;5076765;28;20487;-72
2023/06/17 04:08:23;;;;;;;7.03;4.72;;;;;;;;;;5067732;28;20384;-72
2023/06/17 04:10:49;;;;;;;7.32;5.03;;;;;;;;;;5064713;28;20044;-72
2023/06/17 04:13:15;;;;;;;7.82;5.00;;;;;;;;;;5069622;28;20482;-72
2023/06/17 04:15:41;;;;;;;5.25;4.72;;;;;;;;;;5063590;28;20056;-72
2023/06/17 04:18:06;;;;;;;5.43;4.50;;;;;;;;;;5066270;28;20063;-74
2023/06/17 04:20:34;;;;;;;6.35;4.65;;;;;;;;;;5071179;28;20043;-73
2023/06/17 04:23:00;;;;;;;7.88;4.70;;;;;;;;;;5071733;28;20040;-73
2023/06/17 04:25:25;;;;;;;4.90;4.40;;;;;;;;;;5071679;28;20514;-73
2023/06/17 04:27:53;;;;;;;5.72;4.57;;;;;;;;;;5067371;28;20040;-73
2023/06/17 04:30:19;;;;;;;6.35;4.82;;;;;;;;;;5064335;28;20032;-73
2023/06/17 04:32:44;;;;;;;8.77;4.80;;;;;;;;;;5072251;28;20027;-73
2023/06/17 04:35:11;;;;;;;7.22;4.90;;;;;;;;;;5073911;28;20035;-73
2023/06/17 04:37:37;;;;;;;6.90;4.88;;;;;;;;;;5063879;28;20572;-73
2023/06/17 04:40:10;;;;;;;6.43;4.53;;;;;;;;;;5067824;28;20514;-73
2023/06/17 04:42:36;;;;;;;6.60;4.70;;;;;;;;;;5075468;28;20046;-73
2023/06/17 04:45:02;;;;;;;7.93;4.45;;;;;;;;;;5077365;28;20029;-73
2023/06/17 04:47:28;;;;;;;7.07;4.90;;;;;;;;;;5071627;28;20120;-73
2023/06/17 04:49:54;;;;;;;4.35;3.95;;;;;;;;;;5069426;28;20510;-73
2023/06/17 04:52:20;;;;;;;6.07;4.50;;;;;;;;;;5066669;28;20033;-73
2023/06/17 04:54:46;;;;;;;10.65;5.20;;;;;;;;;;5066224;28;20071;-74
2023/06/17 04:57:12;;;;;;;7.40;4.47;;;;;;;;;;5074764;28;20060;-73
2023/06/17 04:59:37;;;;;;;5.82;4.47;;;;;;;;;;5065786;28;20020;-73
2023/06/17 05:02:03;;;;;;;5.60;4.22;;;;;;;;;;5069268;28;20092;-73
2023/06/17 05:04:28;;;;;;;7.93;4.57;;;;;;;;;;5070633;28;20040;-73
2023/06/17 05:06:54;;;;;;;5.07;4.22;;;;;;;;;;5069214;28;20402;-73
2023/06/17 05:09:19;;;;;;;8.20;5.00;;;;;;;;;;5059836;28;20021;-73
2023/06/17 05:11:45;;;;;;;4.85;4.35;;;;;;;;;;5070708;28;20104;-73
2023/06/17 05:14:10;;;;;;;7.40;4.15;;;;;;;;;;5068778;28;20035;-73
2023/06/17 05:16:35;;;;;;;5.85;4.78;;;;;;;;;;5073945;28;20394;-73
2023/06/17 05:19:01;;;;;;;5.65;4.00;;;;;;;;;;5073258;28;20671;-73
2023/06/17 05:21:26;;;;;;;7.03;4.07;;;;;;;;;;5067796;28;20049;-74
2023/06/17 05:23:51;;;;;;;6.00;4.47;;;;;;;;;;5074071;28;20036;-73
2023/06/17 05:26:17;;;;;;;5.57;4.63;;;;;;;;;;5065327;28;20036;-73
2023/06/17 05:28:42;;;;;;;8.40;4.20;;;;;;;;;;5062634;28;20033;-74
2023/06/17 05:31:08;;;;;;;6.00;4.00;;;;;;;;;;5067625;28;20112;-73
2023/06/17 05:33:34;;;;;;;4.70;4.18;;;;;;;;;;5068225;28;20032;-74
2023/06/17 05:36:00;;;;;;;7.55;4.10;;;;;;;;;;5072422;28;20482;-74
2023/06/17 05:38:26;;;;;;;5.88;4.50;;;;;;;;;;5067210;28;20048;-73
2023/06/17 05:40:51;;;;;;;5.05;4.45;;;;;;;;;;5064695;28;20440;-74
2023/06/17 05:43:16;;;;;;;4.38;3.80;;;;;;;;;;5071482;28;20039;-74
2023/06/17 05:45:42;;;;;;;9.52;4.15;;;;;;;;;;5078883;28;20090;-74
2023/06/17 05:48:07;;;;;;;7.50;4.35;;;;;;;;;;5063190;28;20064;-73
2023/06/17 05:50:32;;;;;;;5.85;4.28;;;;;;;;;;5069246;28;20485;-73
2023/06/17 05:52:57;;;;;;;10.35;4.50;;;;;;;;;;5067254;28;20052;-74
2023/06/17 05:55:23;;;;;;;5.80;4.30;;;;;;;;;;5065501;28;20029;-73
2023/06/17 05:57:48;;;;;;;5.35;4.25;;;;;;;;;;5075025;28;20036;-73
2023/06/17 06:00:15;;;;;;;6.25;4.40;;;;;;;;;;5058995;28;20028;-73
2023/06/17 06:02:40;;;;;;;4.72;4.10;;;;;;;;;;5065793;28;20024;-73
2023/06/17 06:05:06;;;;;;;7.03;4.30;;;;;;;;;;5074381;28;20033;-73
2023/06/17 06:07:31;;;;;;;5.68;4.47;;;;;;;;;;5069960;28;20028;-73
2023/06/17 06:09:57;;;;;;;6.30;4.50;;;;;;;;;;5072358;28;20063;-73
2023/06/17 06:12:22;;;;;;;10.80;4.30;;;;;;;;;;5067135;28;20037;-73
2023/06/17 06:14:47;;;;;;;6.90;4.05;;;;;;;;;;5075516;28;20129;-73
2023/06/17 06:17:12;;;;;;;6.75;4.20;;;;;;;;;;5074119;28;20043;-73
2023/06/17 06:19:38;;;;;;;7.82;4.20;;;;;;;;;;5061806;28;20020;-73
2023/06/17 06:22:03;;;;;;;5.82;4.43;;;;;;;;;;5077408;28;20364;-73
2023/06/17 06:24:29;;;;;;;4.13;3.72;;;;;;;;;;5070941;28;20044;-73
2023/06/17 06:26:54;;;;;;;7.78;4.68;;;;;;;;;;5061235;28;20060;-73
2023/06/17 06:29:20;;;;;;;5.20;3.95;;;;;;;;;;5068923;28;20063;-73
2023/06/17 06:31:46;;;;;;;4.32;3.92;;;;;;;;;;5078204;28;20036;-73
2023/06/17 06:34:11;;;;;;;9.70;4.55;;;;;;;;;;5071137;28;20037;-73
2023/06/17 06:36:36;;;;;;;5.03;4.28;;;;;;;;;;5070070;28;20032;-73
2023/06/17 06:39:02;;;;;;;5.50;4.28;;;;;;;;;;5060439;28;20012;-73
2023/06/17 06:41:27;;;;;;;4.78;4.25;;;;;;;;;;5059833;28;20029;-73
2023/06/17 06:43:52;;;;;;;8.23;4.40;;;;;;;;;;5054050;28;20110;-73
2023/06/17 06:46:18;;;;;;;6.53;4.55;;;;;;;;;;5063886;28;20028;-73
2023/06/17 06:48:43;;;;;;;10.15;4.65;;;;;;;;;;5061225;28;20120;-73
2023/06/17 06:51:08;;;;;;;7.07;4.22;;;;;;;;;;5049877;28;20112;-73
2023/06/17 06:53:34;;;;;;;8.20;4.50;;;;;;;;;;5065921;28;20027;-73
2023/06/17 06:55:59;;;;;;;4.63;4.07;;;;;;;;;;5063971;28;20092;-73
2023/06/17 06:58:25;;;;;;;7.40;4.72;;;;;;;;;;5065408;28;20033;-73
2023/06/17 07:00:50;;;;;;;6.45;4.30;;;;;;;;;;5061856;28;20041;-74
2023/06/17 07:03:15;;;;;;;7.88;4.15;;;;;;;;;;5066310;28;20040;-73
2023/06/17 07:05:41;;;;;;;7.93;4.20;;;;;;;;;;5063648;28;20031;-73
2023/06/17 07:08:06;;;;;;;7.68;4.30;;;;;;;;;;5084250;28;20039;-73
2023/06/17 07:10:33;;;;;;;5.20;4.28;;;;;;;;;;5076537;28;20522;-73
2023/06/17 07:12:58;;;;;;;7.95;4.72;;;;;;;;;;5078401;28;20434;-74
2023/06/17 07:15:23;;;;;;;6.20;4.50;;;;;;;;;;5061703;28;20097;-74
2023/06/17 07:17:49;;;;;;;6.65;4.00;;;;;;;;;;5067260;28;20033;-74
2023/06/17 07:20:14;;;;;;;7.75;4.68;;;;;;;;;;5064195;28;20117;-73
2023/06/17 07:22:40;;;;;;;9.50;4.85;;;;;;;;;;5063944;28;20375;-74
2023/06/17 07:25:05;;;;;;;7.05;4.60;;;;;;;;;;5064440;28;20035;-73
2023/06/17 07:27:31;;;;;;;8.85;4.85;;;;;;;;;;5060102;28;20118;-74
2023/06/17 07:29:56;;;;;;;6.35;4.68;;;;;;;;;;5071255;28;20021;-74
2023/06/17 07:32:21;;;;;;;7.32;4.53;;;;;;;;;;5076414;28;20388;-74
2023/06/17 07:34:46;;;;;;;6.30;4.93;;;;;;;;;;5080415;28;20036;-74
2023/06/17 07:37:12;;;;;;;8.73;5.00;;;;;;;;;;5078938;28;20024;-74
2023/06/17 07:39:37;;;;;;;6.38;5.03;;;;;;;;;;5085170;28;20029;-74
2023/06/17 07:42:02;;;;;;;7.18;4.93;;;;;;;;;;5078524;28;20075;-74
2023/06/17 07:44:28;;;;;;;6.03;4.90;;;;;;;;;;5073355;28;20032;-73
2023/06/17 07:46:53;;;;;;;6.97;4.90;;;;;;;;;;5067148;28;20098;-73
2023/06/17 07:49:18;;;;;;;6.50;4.78;;;;;;;;;;5062505;28;20092;-73
2023/06/17 07:51:44;;;;;;;7.57;4.95;;;;;;;;;;5055842;28;20403;-74
2023/06/17 07:54:09;;;;;;;8.10;5.70;;;;;;;;;;5052164;28;20029;-74
2023/06/17 07:56:34;;;;;;;8.23;5.85;;;;;;;;;;5059388;28;20527;-74
2023/06/17 07:58:59;;;;;;;7.50;5.20;;;;;;;;;;5053082;28;20040;-74
2023/06/17 08:01:25;;;;;;;11.48;4.78;;;;;;;;;;5061261;28;20044;-73
2023/06/17 08:03:50;;;;;;;8.48;4.85;;;;;;;;;;5062792;28;20116;-74
2023/06/17 08:06:16;;;;;;;7.75;4.78;;;;;;;;;;5061560;28;20029;-73
2023/06/17 08:08:41;;;;;;;10.27;4.80;;;;;;;;;;5061232;28;20021;-74
2023/06/17 08:11:08;;;;;;;5.57;4.47;;;;;;;;;;5061534;28;20398;-73
2023/06/17 08:13:33;;;;;;;7.93;3.97;;;;;;;;;;5061568;28;20035;-74
2023/06/17 08:15:59;;;;;;;10.77;4.80;;;;;;;;;;5063779;28;20387;-73
2023/06/17 08:18:25;;;;;;;7.57;4.47;;;;;;;;;;5064038;28;20036;-73
2023/06/17 08:20:50;;;;;;;4.32;3.92;;;;;;;;;;5065017;28;20463;-73
2023/06/17 08:23:16;;;;;;;6.63;4.57;;;;;;;;;;5063562;28;20041;-73
2023/06/17 08:25:41;;;;;;;6.15;4.25;;;;;;;;;;5056711;28;20082;-74
2023/06/17 08:28:06;;;;;;;5.93;4.25;;;;;;;;;;5056173;28;20037;-74
2023/06/17 08:30:32;;;;;;;15.77;4.40;;;;;;;;;;5070112;28;20047;-73
2023/06/17 08:32:57;;;;;;;5.45;4.60;;;;;;;;;;5059268;28;20028;-74
2023/06/17 08:35:23;;;;;;;8.50;4.40;;;;;;;;;;5057592;28;20496;-73
2023/06/17 08:37:48;;;;;;;9.75;4.05;;;;;;;;;;5060889;28;20384;-73
2023/06/17 08:40:15;;;;;;;7.85;4.63;;;;;;;;;;5068251;28;20690;-73
2023/06/17 08:42:41;;;;;;;9.82;4.30;;;;;;;;;;5059342;28;20061;-73
2023/06/17 08:45:07;;;;;;;13.40;4.60;;;;;;;;;;5055653;28;20104;-73
2023/06/17 08:47:33;;;;;;;12.82;5.00;;;;;;;;;;5053693;28;20546;-73
2023/06/17 08:49:59;;;;;;;5.30;4.03;;;;;;;;;;5062999;28;20060;-75
2023/06/17 08:52:26;;;;;;;6.18;4.35;;;;;;;;;;5060398;28;20453;-75
2023/06/17 08:54:53;;;;;;;11.07;3.88;;;;;;;;;;5070862;28;20043;-74
2023/06/17 08:57:18;;;;;;;13.20;4.10;;;;;;;;;;5053340;28;20069;-74
2023/06/17 08:59:43;;;;;;;12.43;4.30;;;;;;;;;;5070975;28;20511;-74
2023/06/17 09:02:12;;;;;;;6.30;4.60;;;;;;;;;;5066752;28;20029;-74
2023/06/17 09:04:39;;;;;;;7.57;4.00;;;;;;;;;;5062585;28;20043;-74
2023/06/17 09:07:06;;;;;;;7.97;4.00;;;;;;;;;;5066764;28;20070;-74
2023/06/17 09:09:32;;;;;;;7.18;3.60;;;;;;;;;;5057590;28;20094;-73
2023/06/17 09:12:05;;;;;;;5.70;4.45;;;;;;;;;;5060133;28;20108;-73
2023/06/17 09:14:31;;;;;;;6.47;3.90;;;;;;;;;;5056765;28;20044;-73
2023/06/17 09:16:56;;;;;;;4.47;4.00;;;;;;;;;;5057593;28;20029;-73
2023/06/17 09:19:22;;;;;;;8.15;4.00;;;;;;;;;;5057720;28;20037;-73
2023/06/17 09:21:48;;;;;;;12.32;4.57;;;;;;;;;;5056304;28;20044;-73
2023/06/17 09:24:13;;;;;;;6.65;4.50;;;;;;;;;;5064555;28;20537;-73
2023/06/17 09:26:43;;;;;;;5.15;4.18;;;;;;;;;;5063848;28;20020;-73
2023/06/17 09:29:12;;;;;;;8.50;4.55;;;;;;;;;;5065121;28;20037;-73
2023/06/17 09:31:55;;;;;;;7.45;4.68;;;;;;;;;;5055373;28;20418;-73
2023/06/17 09:34:21;;;;;;;8.82;4.18;;;;;;;;;;5063513;28;20117;-73
2023/06/17 09:36:54;;;;;;;7.47;4.10;;;;;;;;;;5062416;28;20107;-73
2023/06/17 09:39:28;;;;;;;9.40;4.40;;;;;;;;;;5056391;28;20443;-73
2023/06/17 09:41:54;;;;;;;;;;;;;;;;;;5059606;28;20036;-73
2023/06/17 09:44:22;;;;;;;7.32;4.10;;;;;;;;;;5057987;28;20338;-73
2023/06/17 09:46:49;;;;;;;7.65;4.20;;;;;;;;;;5055052;28;20531;-73
2023/06/17 09:49:16;;;;;;;5.32;4.28;;;;;;;;;;5051162;28;20043;-73
2023/06/17 09:51:42;;;;;;;8.00;4.40;;;;;;;;;;5061259;28;20028;-74
2023/06/17 09:54:10;;;;;;;5.90;4.20;;;;;;;;;;5053209;28;20029;-73
2023/06/17 09:56:37;;;;;;;5.35;4.40;;;;;;;;;;5053638;28;20114;-73
2023/06/17 09:59:03;;;;;;;9.00;4.60;;;;;;;;;;5066069;28;20360;-73
2023/06/17 10:01:32;;;;;;;6.57;5.70;;;;;;;;;;5053357;28;20450;-72
2023/06/17 10:03:59;;;;;;;6.28;4.40;;;;;;;;;;5055998;28;20051;-73
2023/06/17 10:06:29;;;;;;;8.90;4.20;;;;;;;;;;5054729;28;20036;-73
2023/06/17 10:08:56;;;;;;;8.57;4.80;;;;;;;;;;5058956;28;20037;-74
2023/06/17 10:11:22;;;;;;;8.02;4.40;;;;;;;;;;5069642;28;20514;-74
2023/06/17 10:14:01;;;;;;;5.88;4.28;;;;;;;;;;5073895;28;20063;-74
2023/06/17 10:16:30;;;;;;;7.03;4.68;;;;;;;;;;5080195;28;20398;-74
2023/06/17 10:18:58;;;;;;;9.65;4.30;;;;;;;;;;5066957;28;20036;-74
2023/06/17 10:21:26;;;;;;;7.88;3.92;;;;;;;;;;5067729;28;20039;-74
2023/06/17 10:23:53;;;;;;;6.47;4.72;;;;;;;;;;5078167;28;20066;-74
2023/06/17 10:26:21;;;;;;;10.10;4.80;;;;;;;;;;5077644;28;20432;-74
2023/06/17 10:29:02;;;;;;;7.28;5.00;;;;;;;;;;5069295;28;20146;-74
2023/06/17 10:31:30;;;;;;;9.70;4.63;;;;;;;;;;5067932;28;20123;-73
2023/06/17 10:33:57;;;;;;;6.85;4.75;;;;;;;;;;5071925;28;20038;-73
2023/06/17 10:36:23;;;;;;;8.30;4.78;;;;;;;;;;5071119;28;20036;-73
2023/06/17 10:38:57;;;;;;;8.05;4.60;;;;;;;;;;5074565;28;20033;-73
2023/06/17 10:41:28;;;;;;;9.43;4.67;;;;;;;;;;5078395;28;20498;-73
2023/06/17 10:43:53;;;;;;;6.80;4.32;;;;;;;;;;5062501;28;20119;-73
2023/06/17 10:46:25;;;;;;;5.85;4.30;;;;;;;;;;5069973;28;20083;-73
2023/06/17 10:48:50;;;;;;;6.53;4.78;;;;;;;;;;5074371;28;20577;-73
2023/06/17 10:51:17;;;;;;;6.15;4.28;;;;;;;;;;5069515;28;20025;-74
2023/06/17 10:53:49;;;;;;;5.85;3.88;;;;;;;;;;5066200;28;20069;-74
2023/06/17 10:56:15;;;;;;;5.40;4.90;;;;;;;;;;5078485;28;20482;-74
2023/06/17 10:58:45;;;;;;;7.07;4.35;;;;;;;;;;5069608;28;20032;-74
2023/06/17 11:01:11;;;;;;;5.75;4.53;;;;;;;;;;5072951;28;20033;-74
2023/06/17 11:03:37;;;;;;;6.53;4.72;;;;;;;;;;5082195;28;20399;-74
2023/06/17 11:06:04;;;;;;;7.65;4.40;;;;;;;;;;5074383;28;20378;-74
2023/06/17 11:08:32;;;;;;;14.68;4.43;;;;;;;;;;5070167;28;20041;-74
2023/06/17 11:11:07;;;;;;;9.10;4.63;;;;;;;;;;5062027;28;20033;-74
2023/06/17 11:13:32;;;;;;;8.98;4.88;;;;;;;;;;5060117;28;20043;-74
2023/06/17 11:15:57;;;;;;;23.48;5.30;;;;;;;;;;5063803;28;20040;-74
2023/06/17 11:18:22;;;;;;;7.10;4.85;;;;;;;;;;5056342;28;20082;-73
2023/06/17 11:20:48;;;;;;;5.82;4.30;;;;;;;;;;5059083;28;20737;-73
2023/06/17 11:23:13;;;;;;;7.28;4.15;;;;;;;;;;5067911;28;20170;-73
2023/06/17 11:25:40;;;;;;;6.85;4.57;;;;;;;;;;5065450;28;20042;-74
2023/06/17 11:28:05;;;;;;;7.50;4.70;;;;;;;;;;5060057;28;20029;-74
2023/06/17 11:30:31;;;;;;;6.07;4.55;;;;;;;;;;5061482;28;20044;-73
2023/06/17 11:32:57;;;;;;;5.90;4.70;;;;;;;;;;5056855;28;20033;-74
2023/06/17 11:35:23;;;;;;;5.93;4.60;;;;;;;;;;5064401;28;20074;-73
2023/06/17 11:37:48;;;;;;;12.73;5.30;;;;;;;;;;5061200;28;20515;-74
2023/06/17 11:40:16;;;;;;;8.05;5.40;;;;;;;;;;5073337;28;20036;-74
2023/06/17 11:42:41;;;;;;;7.45;4.50;;;;;;;;;;5063498;28;20029;-74
2023/06/17 11:45:07;;;;;;;5.35;4.15;;;;;;;;;;5064826;28;20463;-74
2023/06/17 11:47:34;;;;;;;6.28;4.47;;;;;;;;;;5058038;28;20368;-73
2023/06/17 11:50:00;;;;;;;7.70;4.60;;;;;;;;;;5054814;28;20128;-74
2023/06/17 11:52:25;;;;;;;8.80;5.00;;;;;;;;;;5063315;28;20695;-74
2023/06/17 11:54:51;;;;;;;6.32;4.95;;;;;;;;;;5061494;28;20538;-74
2023/06/17 11:57:21;;;;;;;6.40;4.72;;;;;;;;;;5060999;28;20034;-74
2023/06/17 11:59:47;;;;;;;8.43;4.90;;;;;;;;;;5055154;28;20024;-74
2023/06/17 12:02:13;;;;;;;5.85;4.65;;;;;;;;;;5060964;28;20571;-74
2023/06/17 12:04:38;;;;;;;8.38;4.85;;;;;;;;;;5059295;28;20094;-74
2023/06/17 12:07:06;;;;;;;7.40;5.03;;;;;;;;;;5059770;28;20081;-74
2023/06/17 12:09:35;;;;;;;8.43;5.60;;;;;;;;;;5059870;28;20140;-73
2023/06/17 12:12:01;;;;;;;5.20;4.60;;;;;;;;;;5060320;28;20017;-74
2023/06/17 12:14:27;;;;;;;10.23;4.93;;;;;;;;;;5064165;28;20036;-74
2023/06/17 12:16:53;;;;;;;8.95;4.95;;;;;;;;;;5053458;28;20086;-74
2023/06/17 12:19:23;;;;;;;5.00;4.50;;;;;;;;;;5055079;28;20079;-74
2023/06/17 12:21:49;;;;;;;6.93;4.68;;;;;;;;;;5058545;28;20568;-75
2023/06/17 12:24:15;;;;;;;7.35;5.18;;;;;;;;;;5061661;28;20066;-74
2023/06/17 12:26:41;;;;;;;7.57;4.97;;;;;;;;;;5067135;28;20043;-75
2023/06/17 12:29:08;;;;;;;10.05;5.10;;;;;;;;;;5056444;28;20057;-74
2023/06/17 12:31:34;;;;;;;15.55;5.10;;;;;;;;;;5060047;28;20380;-74
2023/06/17 12:33:59;;;;;;;7.82;4.65;;;;;;;;;;5055577;28;20033;-74
2023/06/17 12:36:25;;;;;;;5.03;4.53;;;;;;;;;;5058032;28;20040;-75
2023/06/17 12:38:50;;;;;;;7.70;5.00;;;;;;;;;;5064886;28;20135;-75
2023/06/17 12:41:16;;;;;;;8.00;4.32;;;;;;;;;;5055034;28;21812;-75
2023/06/17 12:43:41;;;;;;;6.65;5.40;;;;;;;;;;5059796;28;20039;-75
2023/06/17 12:46:07;;;;;;;6.65;5.22;;;;;;;;;;5059068;28;20029;-75
2023/06/17 12:48:35;;;;;;;7.20;4.57;;;;;;;;;;5059850;28;20091;-75
2023/06/17 12:51:01;;;;;;;5.32;4.82;;;;;;;;;;5061186;28;20032;-75
2023/06/17 12:53:27;;;;;;;5.20;4.68;;;;;;;;;;5057459;28;20039;-75
2023/06/17 12:55:55;;;;;;;6.35;5.00;;;;;;;;;;5064597;28;20445;-75
2023/06/17 12:58:21;;;;;;;5.60;5.05;;;;;;;;;;5069321;28;20090;-75
2023/06/17 13:00:46;;;;;;;6.88;5.53;;;;;;;;;;5061128;28;20044;-74
2023/06/17 13:03:12;;;;;;;9.00;4.90;;;;;;;;;;5064180;28;20021;-75
2023/06/17 13:05:37;;;;;;;7.03;4.88;;;;;;;;;;5064960;28;20527;-74
2023/06/17 13:08:03;;;;;;;7.28;5.20;;;;;;;;;;5056544;28;20044;-75
2023/06/17 13:10:28;;;;;;;6.93;4.63;;;;;;;;;;5063045;28;20032;-75
2023/06/17 13:12:53;;;;;;;8.13;5.47;;;;;;;;;;5084660;28;20123;-75
2023/06/17 13:15:19;;;;;;;6.40;5.60;;;;;;;;;;5083180;28;20028;-75
2023/06/17 13:17:44;;;;;;;10.68;5.15;;;;;;;;;;5070952;28;20119;-74
2023/06/17 13:20:10;;;;;;;17.38;5.05;;;;;;;;;;5065224;28;20036;-75
2023/06/17 13:22:36;;;;;;;8.68;5.15;;;;;;;;;;5062994;28;20024;-75
2023/06/17 13:25:02;;;;;;;9.05;5.32;;;;;;;;;;5060224;28;20044;-75
2023/06/17 13:27:28;;;;;;;7.18;5.53;;;;;;;;;;5077852;28;20447;-75
2023/06/17 13:29:54;;;;;;;10.02;5.57;;;;;;;;;;5064320;28;20029;-75
2023/06/17 13:32:19;;;;;;;8.15;5.38;;;;;;;;;;5078909;28;20399;-74
2023/06/17 13:34:45;;;;;;;11.75;5.07;;;;;;;;;;5068550;28;20132;-75
2023/06/17 13:37:11;;;;;;;5.82;4.82;;;;;;;;;;5060344;28;20598;-75
2023/06/17 13:39:36;;;;;;;5.43;4.70;;;;;;;;;;5066448;28;20491;-75
2023/06/17 13:42:03;;;;;;;5.85;4.95;;;;;;;;;;5054400;28;20017;-75
2023/06/17 13:44:29;;;;;;;9.95;5.20;;;;;;;;;;5058494;28;20517;-75
2023/06/17 13:46:56;;;;;;;6.10;4.57;;;;;;;;;;5070030;28;20087;-74
2023/06/17 13:49:21;;;;;;;4.82;4.43;;;;;;;;;;5073896;28;20033;-75
2023/06/17 13:51:47;;;;;;;10.50;6.78;;;;;;;;;;5060740;28;20049;-75
2023/06/17 13:54:14;;;;;;;6.15;4.80;;;;;;;;;;5078543;28;20165;-75
2023/06/17 13:56:40;;;;;;;7.38;4.80;;;;;;;;;;5069425;28;20198;-75
2023/06/17 13:59:05;;;;;;;7.15;4.88;;;;;;;;;;5077158;28;20415;-75
2023/06/17 14:01:30;;;;;;;6.85;5.13;;;;;;;;;;5065780;28;20036;-75
2023/06/17 14:03:55;;;;;;;6.05;4.95;;;;;;;;;;5072303;28;20115;-75
2023/06/17 14:06:21;;;;;;;7.93;5.35;;;;;;;;;;5070466;28;20029;-75
2023/06/17 14:08:47;;;;;;;7.97;5.32;;;;;;;;;;5063348;28;20093;-75
2023/06/17 14:11:12;;;;;;;6.38;5.15;;;;;;;;;;5064600;28;20041;-75
2023/06/17 14:13:37;;;;;;;7.45;5.00;;;;;;;;;;5067773;28;20046;-75
2023/06/17 14:16:03;;;;;;;10.80;5.47;;;;;;;;;;5066732;28;20044;-75
2023/06/17 14:18:28;;;;;;;7.18;5.18;;;;;;;;;;5061748;28;20039;-75
2023/06/17 14:20:53;;;;;;;8.00;5.70;;;;;;;;;;5075526;28;20028;-73
2023/06/17 14:23:18;;;;;;;6.55;5.50;;;;;;;;;;5074164;28;20032;-73
2023/06/17 14:25:44;;;;;;;7.95;5.57;;;;;;;;;;5070734;28;20067;-73
2023/06/17 14:28:09;;;;;;;6.93;5.40;;;;;;;;;;5078314;28;20505;-73
2023/06/17 14:30:35;;;;;;;9.05;5.50;;;;;;;;;;5068926;28;20406;-73
2023/06/17 14:33:01;;;;;;;7.55;5.72;;;;;;;;;;5083993;28;20544;-73
2023/06/17 14:35:26;;;;;;;6.72;5.70;;;;;;;;;;5069813;28;20048;-73